createdAt,value
2022-11-09T00:00:03.550Z,0
2022-11-09T00:05:03.285Z,0
2022-11-09T00:10:03.312Z,0
2022-11-09T00:15:02.754Z,0
2022-11-09T00:20:03.284Z,0
2022-11-09T00:25:02.626Z,0
2022-11-09T00:30:02.435Z,0
2022-11-09T00:35:03.056Z,0
2022-11-09T00:40:02.737Z,0
2022-11-09T00:45:02.544Z,0
2022-11-09T00:50:02.692Z,0
2022-11-09T00:55:04.686Z,0
2022-11-09T01:00:03.016Z,0
2022-11-09T01:05:02.903Z,0
2022-11-09T01:10:02.613Z,0
2022-11-09T01:15:03.365Z,0
2022-11-09T01:20:03.187Z,0
2022-11-09T01:25:02.803Z,0
2022-11-09T01:30:04.323Z,0
2022-11-09T01:35:02.845Z,0
2022-11-09T01:40:03.298Z,0
2022-11-09T01:45:03.142Z,0
2022-11-09T01:50:02.735Z,0
2022-11-09T01:55:03.708Z,0
2022-11-09T02:00:03.837Z,0
2022-11-09T02:05:03.049Z,0
2022-11-09T02:10:02.778Z,0
2022-11-09T02:15:03.370Z,0
2022-11-09T02:20:02.707Z,0
2022-11-09T02:25:03.261Z,0
2022-11-09T02:30:03.264Z,0
2022-11-09T02:35:02.968Z,0
2022-11-09T02:40:02.837Z,0
2022-11-09T02:45:02.615Z,0
2022-11-09T02:50:02.856Z,0
2022-11-09T02:55:03.787Z,0
2022-11-09T03:00:03.257Z,0
2022-11-09T03:05:02.891Z,0
2022-11-09T03:10:02.912Z,0
2022-11-09T03:15:02.605Z,0
2022-11-09T03:20:03.321Z,0
2022-11-09T03:25:02.978Z,0
2022-11-09T03:30:02.753Z,0
2022-11-09T03:35:03.366Z,0
2022-11-09T03:40:03.181Z,0
2022-11-09T03:45:02.911Z,0
2022-11-09T03:50:02.553Z,0
2022-11-09T03:55:04.327Z,0
2022-11-09T04:00:02.978Z,0
2022-11-09T04:05:02.710Z,0
2022-11-09T04:10:03.446Z,0
2022-11-09T04:15:03.067Z,0
2022-11-09T04:20:02.656Z,0
2022-11-09T04:25:02.398Z,0
2022-11-09T04:30:03.211Z,0
2022-11-09T04:35:02.780Z,0
2022-11-09T04:40:02.558Z,0
2022-11-09T04:45:03.583Z,0
2022-11-09T04:50:02.879Z,0
2022-11-09T04:55:03.687Z,0
2022-11-09T05:00:03.185Z,0
2022-11-09T05:05:02.688Z,0
2022-11-09T05:10:02.450Z,0
2022-11-09T05:15:03.368Z,0
2022-11-09T05:20:03.099Z,0
2022-11-09T05:25:02.756Z,0
2022-11-09T05:30:02.598Z,0
2022-11-09T05:35:03.206Z,0
2022-11-09T05:40:02.848Z,0.23
2022-11-09T05:45:43.832Z,0.45
2022-11-09T05:50:03.149Z,1.02
2022-11-09T05:55:03.961Z,2.26
2022-11-09T06:00:07.348Z,3.96
2022-11-09T06:05:03.587Z,8.94
2022-11-09T06:10:03.241Z,6.67
2022-11-09T06:15:03.185Z,13.33
2022-11-09T06:20:02.910Z,18.33
2022-11-09T06:25:03.623Z,33.33
2022-11-09T06:30:02.817Z,73.33
2022-11-09T06:35:03.432Z,120
2022-11-09T06:40:02.920Z,156.67
2022-11-09T06:45:02.896Z,178.33
2022-11-09T06:50:02.880Z,175
2022-11-09T06:55:04.069Z,261.67
2022-11-09T07:00:03.564Z,285
2022-11-09T07:05:03.271Z,240
2022-11-09T07:10:02.915Z,293.33
2022-11-09T07:15:03.681Z,253.33
2022-11-09T07:20:03.342Z,288.33
2022-11-09T07:25:02.988Z,280
2022-11-09T07:30:02.745Z,265
2022-11-09T07:35:03.367Z,346.67
2022-11-09T07:40:03.199Z,596.67
2022-11-09T07:45:02.973Z,586.67
2022-11-09T07:50:03.250Z,345
2022-11-09T07:55:04.489Z,368.33
2022-11-09T08:00:03.526Z,331.67
2022-11-09T08:05:03.283Z,376.67
2022-11-09T08:10:03.015Z,490
2022-11-09T08:15:02.759Z,758.33
2022-11-09T08:20:03.467Z,1108.33
2022-11-09T08:25:03.095Z,1205
2022-11-09T08:30:02.845Z,1386.67
2022-11-09T08:35:03.650Z,1936.67
2022-11-09T08:40:03.348Z,2516.67
2022-11-09T08:45:03.332Z,2635
2022-11-09T08:50:02.956Z,2560
2022-11-09T08:55:03.866Z,2410
2022-11-09T09:00:03.614Z,2573.33
2022-11-09T09:05:03.312Z,2978.33
2022-11-09T09:10:03.152Z,3840
2022-11-09T09:15:02.862Z,4835
2022-11-09T09:20:03.686Z,5108.33
2022-11-09T09:25:03.000Z,4173.33
2022-11-09T09:30:02.974Z,3543.33
2022-11-09T09:35:03.117Z,3281.67
2022-11-09T09:40:02.517Z,3436.67
2022-11-09T09:45:03.486Z,3735
2022-11-09T09:50:03.214Z,4215
2022-11-09T09:55:03.955Z,4526.67
2022-11-09T10:00:02.550Z,5006.67
2022-11-09T10:05:03.232Z,5861.67
2022-11-09T10:10:02.797Z,4810
2022-11-09T10:15:02.954Z,4280
2022-11-09T10:20:02.666Z,3978.33
2022-11-09T10:26:06.187Z,3848.33
2022-11-09T10:30:03.067Z,4393.33
2022-11-09T10:35:02.746Z,4858.33
2022-11-09T10:40:02.593Z,5440
2022-11-09T10:45:02.709Z,5675
2022-11-09T10:50:03.375Z,6340
2022-11-09T10:55:04.173Z,5798.33
2022-11-09T11:00:03.132Z,6848.33
2022-11-09T11:05:02.865Z,6248.33
2022-11-09T11:10:02.598Z,3951.67
2022-11-09T11:15:03.533Z,3233.33
2022-11-09T11:20:02.512Z,2585
2022-11-09T11:25:03.207Z,2320
2022-11-09T11:30:03.123Z,3178.33
2022-11-09T11:35:03.081Z,3340
2022-11-09T11:40:03.230Z,4258.33
2022-11-09T11:45:41.964Z,3695
2022-11-09T11:50:03.200Z,3361.67
2022-11-09T11:55:04.294Z,3608.33
2022-11-09T12:00:02.716Z,3626.67
2022-11-09T12:05:03.417Z,3823.33
2022-11-09T12:10:03.170Z,3208.33
2022-11-09T12:15:02.801Z,3175
2022-11-09T12:20:02.551Z,3575
2022-11-09T12:25:03.307Z,3551.67
2022-11-09T12:30:03.105Z,3450
2022-11-09T12:35:02.642Z,4076.67
2022-11-09T12:40:02.690Z,3163.33
2022-11-09T12:45:03.547Z,4050
2022-11-09T12:50:02.820Z,6436.67
2022-11-09T12:55:04.686Z,5500
2022-11-09T13:00:03.421Z,5025
2022-11-09T13:05:03.464Z,4760
2022-11-09T13:10:02.965Z,3963.33
2022-11-09T13:15:03.235Z,3973.33
2022-11-09T13:20:02.953Z,3751.67
2022-11-09T13:25:03.601Z,3318.33
2022-11-09T13:30:03.420Z,2918.33
2022-11-09T13:35:03.063Z,2678.33
2022-11-09T13:40:02.748Z,2706.67
2022-11-09T13:45:02.959Z,2783.33
2022-11-09T13:50:02.676Z,2686.67
2022-11-09T13:55:05.173Z,2638.33
2022-11-09T14:00:02.677Z,3123.33
2022-11-09T14:05:02.836Z,2830
2022-11-09T14:10:02.791Z,2695
2022-11-09T14:15:03.465Z,2236.67
2022-11-09T14:20:02.572Z,1825
2022-11-09T14:25:03.140Z,1713.33
2022-11-09T14:30:03.025Z,1725
2022-11-09T14:35:02.701Z,1510
2022-11-09T14:40:02.513Z,1311.67
2022-11-09T14:45:03.421Z,1105
2022-11-09T14:50:03.516Z,901.67
2022-11-09T14:55:04.405Z,763.33
2022-11-09T15:00:02.989Z,471.67
2022-11-09T15:05:02.533Z,396.67
2022-11-09T15:10:03.227Z,293.33
2022-11-09T15:15:02.903Z,216.67
2022-11-09T15:20:02.601Z,145
2022-11-09T15:25:02.401Z,96.67
2022-11-09T15:30:03.098Z,63.33
2022-11-09T15:35:03.100Z,36.67
2022-11-09T15:40:02.703Z,18.33
2022-11-09T15:45:03.382Z,8.33
2022-11-09T15:50:03.189Z,9.28
2022-11-09T15:55:03.968Z,4.53
2022-11-09T16:00:06.692Z,1.81
2022-11-09T16:05:03.038Z,0.68
2022-11-09T16:10:03.357Z,0.11
2022-11-09T16:15:02.839Z,0
2022-11-09T16:20:02.813Z,0
2022-11-09T16:25:03.398Z,0
2022-11-09T16:30:03.123Z,0
2022-11-09T16:35:29.204Z,0
2022-11-09T16:40:02.969Z,0
2022-11-09T16:45:03.821Z,0
2022-11-09T16:50:03.601Z,0
2022-11-09T16:55:04.498Z,0
2022-11-09T17:00:03.135Z,0
2022-11-09T17:05:02.847Z,0
2022-11-09T17:10:03.554Z,0
2022-11-09T17:15:03.290Z,0
2022-11-09T17:20:02.997Z,0
2022-11-09T17:25:02.463Z,0
2022-11-09T17:30:02.761Z,0
2022-11-09T17:35:03.507Z,0
2022-11-09T17:40:03.545Z,0
2022-11-09T17:45:03.302Z,0
2022-11-09T17:50:02.970Z,0
2022-11-09T17:55:04.794Z,0
2022-11-09T18:00:03.348Z,0
2022-11-09T18:05:03.028Z,0
2022-11-09T18:10:02.799Z,0
2022-11-09T18:15:03.606Z,0
2022-11-09T18:20:03.339Z,0
2022-11-09T18:25:02.999Z,0
2022-11-09T18:30:02.763Z,0
2022-11-09T18:35:02.745Z,0
2022-11-09T18:40:03.210Z,0
2022-11-09T18:45:02.869Z,0
2022-11-09T18:50:02.414Z,0
2022-11-09T18:55:04.721Z,0
2022-11-09T19:00:03.033Z,0
2022-11-09T19:05:02.820Z,0
2022-11-09T19:10:03.464Z,0
2022-11-09T19:15:03.280Z,0
2022-11-09T19:20:02.975Z,0
2022-11-09T19:25:02.718Z,0
2022-11-09T19:30:10.402Z,0
2022-11-09T19:35:03.220Z,0
2022-11-09T19:40:02.782Z,0
2022-11-09T19:45:03.111Z,0
2022-11-09T19:50:03.054Z,0
2022-11-09T19:55:03.983Z,0
2022-11-09T20:00:02.653Z,0
2022-11-09T20:05:03.433Z,0
2022-11-09T20:10:03.226Z,0
2022-11-09T20:15:03.003Z,0
2022-11-09T20:20:02.673Z,0
2022-11-09T20:25:03.404Z,0
2022-11-09T20:30:02.602Z,0
2022-11-09T20:35:03.254Z,0
2022-11-09T20:40:03.074Z,0
2022-11-09T20:45:02.750Z,0
2022-11-09T20:50:03.289Z,0
2022-11-09T20:55:04.175Z,0
2022-11-09T21:00:02.956Z,0
2022-11-09T21:05:02.668Z,0
2022-11-09T21:10:03.462Z,0
2022-11-09T21:15:03.381Z,0
2022-11-09T21:20:03.085Z,0
2022-11-09T21:25:02.819Z,0
2022-11-09T21:30:02.578Z,0
2022-11-09T21:35:03.363Z,0
2022-11-09T21:40:03.015Z,0
2022-11-09T21:45:02.741Z,0
2022-11-09T21:50:13.120Z,0
2022-11-09T21:55:03.798Z,0
2022-11-09T22:00:02.743Z,0
2022-11-09T22:05:03.145Z,0
2022-11-09T22:10:12.197Z,0
2022-11-09T22:15:02.948Z,0
2022-11-09T22:20:02.649Z,0
2022-11-09T22:25:03.309Z,0
2022-11-09T22:30:03.108Z,0
2022-11-09T22:35:02.869Z,0
2022-11-09T22:40:03.630Z,0
2022-11-09T22:45:03.334Z,0
2022-11-09T22:50:03.157Z,0
2022-11-09T22:55:03.789Z,0
2022-11-09T23:00:03.568Z,0
2022-11-09T23:05:03.200Z,0
2022-11-09T23:10:02.807Z,0
2022-11-09T23:15:02.561Z,0
2022-11-09T23:20:03.269Z,0
2022-11-09T23:25:02.964Z,0
2022-11-09T23:30:02.846Z,0
2022-11-09T23:35:03.594Z,0
2022-11-09T23:40:03.186Z,0
2022-11-09T23:45:02.983Z,0
2022-11-09T23:50:03.492Z,0
2022-11-09T23:55:04.108Z,0
